Time;durP1;ratioP1;P1;durP2;ratioP2;P2;SDS_P1;SDS_P2;PMS_P1;PMS_P2;Temp;Humidity;BMP_temperature;BMP_pressure;BME280_temperature;BME280_humidity;BME280_pressure;Samples;Min_cycle;Max_cycle;Signal;HPM_P1;HPM_P2
2022/01/10 00:01:11;;;;;;;17.10;6.55;;;;;;;3.28;87.19;99359.44;5014473;28;20084;-88
2022/01/10 00:03:37;;;;;;;14.43;6.53;;;;;;;3.25;87.05;99370.78;5022253;28;20473;-88
2022/01/10 00:06:05;;;;;;;14.40;6.60;;;;;;;3.27;87.23;99379.31;5036154;28;20052;-89
2022/01/10 00:08:34;;;;;;;15.30;6.97;;;;;;;3.29;87.06;99376.63;5032624;28;20389;-90
2022/01/10 00:11:00;;;;;;;13.27;5.68;;;;;;;3.28;87.08;99382.75;5034425;28;20044;-88
2022/01/10 00:13:25;;;;;;;13.00;6.18;;;;;;;3.31;87.14;99390.34;5026352;28;20472;-89
2022/01/10 00:15:51;;;;;;;17.25;6.07;;;;;;;3.28;86.91;99385.34;5044222;28;20059;-90
2022/01/10 00:18:21;;;;;;;13.10;5.70;;;;;;;3.28;86.96;99396.53;5034114;28;20025;-89
2022/01/10 00:20:48;;;;;;;19.73;6.38;;;;;;;3.25;86.78;99396.69;5040078;28;20033;-88
2022/01/10 00:23:14;;;;;;;18.73;6.60;;;;;;;3.26;86.88;99405.28;5026233;28;20116;-91
2022/01/10 00:25:42;;;;;;;12.23;5.70;;;;;;;3.26;87.01;99408.72;5033267;28;20060;-90
2022/01/10 00:28:09;;;;;;;13.48;6.00;;;;;;;3.24;86.79;99407.13;5033038;28;20087;-89
2022/01/10 00:30:35;;;;;;;10.25;5.30;;;;;;;3.24;86.95;99422.66;5034942;28;20029;-88
2022/01/10 00:33:00;;;;;;;12.38;5.10;;;;;;;3.26;87.08;99426.00;5034252;28;20390;-88
2022/01/10 00:35:28;;;;;;;12.95;5.38;;;;;;;3.24;86.83;99433.88;5023449;28;20034;-88
2022/01/10 00:37:53;;;;;;;16.13;5.70;;;;;;;3.24;87.09;99433.03;5032961;28;20037;-89
2022/01/10 00:40:21;;;;;;;20.58;6.25;;;;;;;3.27;86.75;99436.31;5034449;28;20041;-89
2022/01/10 00:42:54;;;;;;;16.13;6.30;;;;;;;3.28;87.01;99443.16;5028982;28;20018;-88
2022/01/10 00:45:32;;;;;;;12.48;5.85;;;;;;;3.34;86.53;99448.03;5022412;28;20508;-88
2022/01/10 00:48:01;;;;;;;18.27;6.28;;;;;;;3.32;86.45;99443.84;5037442;28;20029;-89
2022/01/10 00:50:28;;;;;;;17.08;6.00;;;;;;;3.34;86.65;99454.97;5040614;28;20482;-89
2022/01/10 00:52:57;;;;;;;17.50;6.13;;;;;;;3.33;86.47;99448.94;5037348;28;20509;-88
2022/01/10 00:55:22;;;;;;;;;;;;;;;3.35;86.32;99459.22;5034813;28;20050;-88
2022/01/10 00:57:48;;;;;;;11.35;5.45;;;;;;;3.34;86.47;99447.19;5035512;28;19909;-89
2022/01/10 01:00:16;;;;;;;11.95;5.40;;;;;;;3.33;86.55;99454.13;5036060;28;20104;-89
2022/01/10 01:02:41;;;;;;;15.43;5.97;;;;;;;3.34;86.51;99450.63;5031671;28;20033;-89
2022/01/10 01:05:10;;;;;;;17.52;6.15;;;;;;;3.31;86.55;99447.34;5031501;28;20055;-88
2022/01/10 01:07:36;;;;;;;21.75;6.97;;;;;;;3.28;87.17;99457.88;5032367;28;20037;-90
2022/01/10 01:12:57;;;;;;;15.52;5.88;;;;;;;3.27;87.12;99463.97;5030360;28;20048;-90
2022/01/10 01:15:34;;;;;;;15.02;5.93;;;;;;;3.25;87.23;99465.78;5033320;28;20056;-89
2022/01/10 01:25:47;;;;;;;16.58;6.60;;;;;;;3.09;87.55;99479.50;5018718;28;20107;-89
2022/01/10 01:28:13;;;;;;;17.45;6.13;;;;;;;3.10;87.63;99478.59;5034616;28;20101;-88
2022/01/10 01:30:38;;;;;;;14.73;5.60;;;;;;;3.10;87.74;99477.75;5035096;28;20051;-89
2022/01/10 01:33:04;;;;;;;18.60;5.80;;;;;;;3.04;87.88;99486.66;5023744;28;20034;-87
2022/01/10 01:35:32;;;;;;;13.65;5.88;;;;;;;3.02;88.08;99487.66;5049980;28;20033;-87
2022/01/10 01:37:58;;;;;;;14.55;5.90;;;;;;;2.98;88.17;99489.56;5053085;28;20048;-87
2022/01/10 01:40:27;;;;;;;12.93;5.93;;;;;;;2.91;88.44;99495.94;5055854;28;20182;-89
2022/01/10 01:42:56;;;;;;;19.80;7.13;;;;;;;2.87;88.69;99492.66;5054692;28;20100;-88
2022/01/10 01:45:37;;;;;;;20.98;6.47;;;;;;;2.85;88.78;99496.22;5052285;28;20461;-88
2022/01/10 01:48:03;;;;;;;21.80;6.78;;;;;;;2.84;89.13;99503.16;5051047;28;20029;-88
2022/01/10 01:50:28;;;;;;;15.02;6.50;;;;;;;2.79;89.46;99510.31;5044190;28;20147;-88
2022/01/10 01:52:54;;;;;;;15.38;6.97;;;;;;;2.78;89.60;99515.53;5051729;28;20106;-88
2022/01/10 01:55:19;;;;;;;15.88;7.20;;;;;;;2.75;89.71;99513.13;5052362;28;20078;-88
2022/01/10 01:57:48;;;;;;;17.92;7.50;;;;;;;2.73;89.53;99517.53;5043295;28;20028;-89
2022/01/10 02:00:24;;;;;;;;;;;;;;;;;;;;;
2022/01/10 02:02:53;;;;;;;20.30;8.20;;;;;;;2.65;89.98;99521.31;5039043;28;20474;-88
2022/01/10 02:05:22;;;;;;;19.00;8.10;;;;;;;2.66;89.73;99524.72;5034488;28;20033;-89
2022/01/10 02:07:47;;;;;;;16.88;8.43;;;;;;;2.66;89.97;99529.91;5034153;28;20060;-89
2022/01/10 02:10:13;;;;;;;26.10;8.65;;;;;;;2.69;89.74;99537.53;5024611;28;20402;-88
2022/01/10 02:12:39;;;;;;;21.63;8.70;;;;;;;2.67;89.73;99536.78;5046463;28;20028;-87
2022/01/10 02:15:05;;;;;;;12.52;7.95;;;;;;;2.71;90.11;99543.50;5016828;28;20121;-89
2022/01/10 02:17:36;;;;;;;21.58;8.80;;;;;;;2.74;89.55;99545.06;5039721;28;20041;-87
2022/01/10 02:20:04;;;;;;;19.90;7.90;;;;;;;2.75;89.35;99557.13;5028239;28;20033;-88
2022/01/10 02:22:29;;;;;;;22.50;8.90;;;;;;;2.75;89.44;99559.72;5035142;28;20069;-88
2022/01/10 02:24:55;;;;;;;19.58;9.05;;;;;;;2.79;89.93;99559.50;5027732;28;20014;-88
2022/01/10 02:27:22;;;;;;;20.48;9.93;;;;;;;2.81;88.98;99557.66;5023384;28;20032;-89
2022/01/10 02:29:48;;;;;;;18.35;10.10;;;;;;;2.82;89.28;99561.94;5038226;28;20038;-89
2022/01/10 02:32:13;;;;;;;21.35;9.98;;;;;;;2.84;89.47;99564.44;5024062;28;20610;-87
2022/01/10 02:34:38;;;;;;;21.55;10.23;;;;;;;2.83;88.69;99570.53;5040231;28;20029;-87
2022/01/10 02:37:04;;;;;;;23.15;9.30;;;;;;;2.83;88.95;99575.72;5020324;28;20040;-87
2022/01/10 02:39:29;;;;;;;24.27;10.27;;;;;;;2.85;89.05;99590.25;5017252;28;20021;-89
2022/01/10 02:41:55;;;;;;;18.98;9.52;;;;;;;2.87;88.79;99587.63;5041829;28;20132;-87
2022/01/10 02:44:20;;;;;;;23.38;10.48;;;;;;;2.87;88.77;99593.63;5031818;28;20032;-87
2022/01/10 02:46:47;;;;;;;23.15;9.77;;;;;;;2.91;88.51;99602.09;5040632;28;20048;-86
2022/01/10 02:49:34;;;;;;;18.95;9.98;;;;;;;2.91;88.66;99600.34;5020655;28;20501;-88
2022/01/10 02:52:01;;;;;;;18.92;9.23;;;;;;;2.95;88.74;99608.81;5016576;28;20686;-88
2022/01/10 02:54:26;;;;;;;20.35;9.55;;;;;;;2.98;88.10;99611.25;5023739;28;20021;-88
2022/01/10 02:56:56;;;;;;;20.48;10.52;;;;;;;2.97;88.60;99614.75;5030465;28;20427;-88
2022/01/10 02:59:23;;;;;;;28.25;10.00;;;;;;;3.00;87.80;99614.59;5005709;28;20048;-89
2022/01/10 03:01:49;;;;;;;23.63;10.30;;;;;;;3.03;88.28;99622.22;5044682;28;20076;-87
2022/01/10 03:04:15;;;;;;;20.98;9.38;;;;;;;3.05;87.99;99622.16;5030387;28;20045;-88
2022/01/10 03:06:43;;;;;;;23.85;9.43;;;;;;;3.07;87.51;99638.47;5020840;28;20083;-88
2022/01/10 03:09:10;;;;;;;20.50;8.32;;;;;;;3.07;87.55;99631.53;5023290;28;20468;-88
2022/01/10 03:11:38;;;;;;;24.20;9.55;;;;;;;3.09;87.58;99634.91;5029639;28;20041;-87
2022/01/10 03:14:04;;;;;;;22.27;9.38;;;;;;;3.13;87.50;99641.63;5030190;28;20124;-90
2022/01/10 03:16:32;;;;;;;19.42;7.93;;;;;;;3.15;87.41;99644.13;5023326;28;20382;-88
2022/01/10 03:19:00;;;;;;;19.00;8.43;;;;;;;3.17;87.29;99651.84;5025711;28;20030;-90
2022/01/10 03:21:28;;;;;;;18.80;8.40;;;;;;;3.18;87.46;99649.16;5039102;28;20025;-89
2022/01/10 03:23:53;;;;;;;22.17;8.88;;;;;;;3.16;87.44;99653.59;5028661;28;20497;-88
2022/01/10 03:26:19;;;;;;;25.25;8.75;;;;;;;3.17;87.25;99657.00;5032085;28;20041;-88
2022/01/10 03:28:45;;;;;;;22.10;8.50;;;;;;;3.18;87.37;99662.09;5009632;28;20060;-88
2022/01/10 03:31:13;;;;;;;21.42;8.25;;;;;;;3.18;87.35;99669.88;5029401;28;20033;-89
2022/01/10 03:33:39;;;;;;;20.75;8.07;;;;;;;3.18;87.07;99669.88;5032075;28;20085;-89
2022/01/10 03:36:04;;;;;;;21.30;9.10;;;;;;;3.18;87.53;99675.06;5043926;28;20072;-88
2022/01/10 03:38:30;;;;;;;17.83;8.23;;;;;;;3.21;87.05;99684.44;5036850;28;20139;-88
2022/01/10 03:40:56;;;;;;;18.40;8.68;;;;;;;3.25;87.09;99692.00;5024038;28;20508;-88
2022/01/10 03:43:24;;;;;;;21.67;8.68;;;;;;;3.25;86.78;99707.53;5042535;28;20041;-88
2022/01/10 03:45:49;;;;;;;18.73;8.55;;;;;;;3.27;86.97;99715.28;5048154;28;20033;-89
2022/01/10 03:48:15;;;;;;;19.52;8.73;;;;;;;3.31;86.62;99721.97;5033762;28;20113;-88
2022/01/10 03:50:41;;;;;;;19.35;7.68;;;;;;;3.31;86.61;99734.94;5032534;28;20052;-88
2022/01/10 03:53:09;;;;;;;20.73;8.35;;;;;;;3.34;86.58;99734.81;5024001;28;20037;-89
2022/01/10 03:55:34;;;;;;;16.80;7.70;;;;;;;3.36;86.17;99741.56;5034336;28;20191;-88
2022/01/10 03:58:02;;;;;;;16.70;7.97;;;;;;;3.38;86.68;99746.72;5013874;28;20060;-88
2022/01/10 04:00:28;;;;;;;20.20;8.27;;;;;;;3.40;86.35;99753.47;5029264;28;20346;-89
2022/01/10 04:03:03;;;;;;;14.02;7.85;;;;;;;3.40;86.47;99757.81;5014589;28;20029;-88
2022/01/10 04:05:32;;;;;;;19.20;9.23;;;;;;;3.36;86.50;99756.28;5008232;28;20140;-88
2022/01/10 04:07:57;;;;;;;19.58;8.25;;;;;;;3.35;86.98;99754.59;5026091;28;20037;-88
2022/01/10 04:10:23;;;;;;;23.95;9.40;;;;;;;3.35;87.05;99755.44;5014120;28;20038;-88
2022/01/10 04:12:56;;;;;;;19.13;8.23;;;;;;;3.38;87.10;99760.50;5030774;28;20483;-88
2022/01/10 04:15:21;;;;;;;23.42;8.73;;;;;;;3.27;87.50;99769.66;5034710;28;20018;-88
2022/01/10 04:17:52;;;;;;;23.20;9.60;;;;;;;3.26;87.90;99773.16;5023532;28;20091;-88
2022/01/10 04:20:18;;;;;;;22.30;9.80;;;;;;;3.30;88.06;99782.47;5026470;28;20113;-89
2022/01/10 04:22:43;;;;;;;18.95;8.85;;;;;;;3.26;87.99;99773.97;5023407;28;20045;-89
2022/01/10 04:25:09;;;;;;;17.75;9.02;;;;;;;3.27;87.98;99782.63;5050731;28;20351;-88
2022/01/10 04:27:34;;;;;;;20.90;8.93;;;;;;;3.26;88.02;99786.09;5033059;28;20045;-88
2022/01/10 04:30:00;;;;;;;20.33;7.95;;;;;;;3.23;87.83;99778.50;5032598;28;20029;-88
2022/01/10 04:32:32;;;;;;;26.35;9.15;;;;;;;3.25;87.75;99784.44;5024496;28;20096;-89
2022/01/10 04:35:04;;;;;;;28.63;10.25;;;;;;;3.23;87.88;99783.69;5030870;28;20061;-88
2022/01/10 04:37:32;;;;;;;25.17;10.48;;;;;;;3.23;87.79;99788.84;5005467;28;20049;-88
2022/01/10 04:40:03;;;;;;;18.48;9.40;;;;;;;3.24;88.01;99798.31;5027237;28;20086;-87
2022/01/10 04:42:29;;;;;;;22.63;10.38;;;;;;;3.17;88.45;99813.28;5026582;28;20373;-88
2022/01/10 04:44:59;;;;;;;21.70;10.07;;;;;;;3.16;88.52;99814.19;5023848;28;20076;-88
2022/01/10 04:47:27;;;;;;;29.17;11.25;;;;;;;3.21;87.92;99811.38;5008000;28;20102;-88
2022/01/10 04:52:28;;;;;;;20.45;9.77;;;;;;;3.14;88.66;99824.59;5033789;28;20041;-88
2022/01/10 04:55:00;;;;;;;23.60;10.23;;;;;;;3.13;88.54;99825.50;5024552;28;20425;-88
2022/01/10 04:57:36;;;;;;;17.60;9.32;;;;;;;3.13;88.43;99830.69;5019080;28;20354;-87
2022/01/10 05:00:22;;;;;;;21.33;9.05;;;;;;;3.14;88.59;99834.13;5019341;28;20455;-88
2022/01/10 05:02:50;;;;;;;22.08;9.75;;;;;;;3.14;88.56;99842.72;4993589;28;20053;-87
2022/01/10 05:05:16;;;;;;;21.63;9.93;;;;;;;3.15;88.61;99844.44;5032580;28;20513;-87
2022/01/10 05:07:44;;;;;;;17.75;9.15;;;;;;;3.13;88.45;99848.00;5031841;28;20041;-87
2022/01/10 05:10:12;;;;;;;19.77;9.10;;;;;;;3.18;88.89;99850.38;5040339;28;20025;-88
2022/01/10 05:12:37;;;;;;;23.05;9.30;;;;;;;3.15;88.72;99859.09;5042812;28;20028;-89
2022/01/10 05:15:07;;;;;;;19.55;8.35;;;;;;;3.22;88.45;99867.47;5035067;28;20429;-88
2022/01/10 05:17:32;;;;;;;17.40;9.00;;;;;;;3.24;88.52;99876.88;5033232;28;20105;-87
2022/01/10 05:20:02;;;;;;;18.17;8.80;;;;;;;3.25;88.52;99870.75;5030919;28;20048;-87
2022/01/10 05:22:28;;;;;;;18.70;9.25;;;;;;;3.24;88.58;99866.50;5048145;28;20041;-88
2022/01/10 05:24:56;;;;;;;22.25;9.52;;;;;;;3.20;88.51;99877.91;5027022;28;20013;-89
2022/01/10 05:27:22;;;;;;;20.92;9.63;;;;;;;3.26;88.59;99879.38;5022692;28;20021;-90
2022/01/10 05:29:47;;;;;;;22.35;8.75;;;;;;;3.25;88.51;99888.91;5033509;28;20053;-89
2022/01/10 05:32:17;;;;;;;20.88;9.32;;;;;;;3.26;88.54;99881.97;5032224;28;20490;-89
2022/01/10 05:34:43;;;;;;;24.23;9.23;;;;;;;3.25;88.76;99894.09;5034592;28;20037;-90
2022/01/10 05:37:08;;;;;;;25.45;8.45;;;;;;;3.27;88.47;99892.28;5026179;28;20166;-91
2022/01/10 05:39:34;;;;;;;23.00;8.00;;;;;;;3.28;88.42;99898.31;5036573;28;20021;-88
2022/01/10 05:41:59;;;;;;;19.95;8.00;;;;;;;3.26;88.72;99906.13;5032201;28;20099;-89
2022/01/10 05:44:27;;;;;;;17.20;8.35;;;;;;;3.31;88.36;99908.53;5033664;28;20038;-89
2022/01/10 05:46:58;;;;;;;24.98;8.93;;;;;;;3.30;88.35;99915.47;5035006;28;20038;-88
2022/01/10 05:49:32;;;;;;;20.25;8.80;;;;;;;3.33;88.21;99919.66;5033362;28;20041;-90
2022/01/10 05:52:01;;;;;;;22.83;9.05;;;;;;;3.31;88.40;99926.66;5034064;28;20120;-89
2022/01/10 05:54:27;;;;;;;21.98;8.80;;;;;;;3.32;88.60;99933.53;5034595;28;20081;-89
2022/01/10 05:56:53;;;;;;;22.77;8.82;;;;;;;3.30;88.56;99945.69;5024434;28;20041;-89
2022/01/10 05:59:19;;;;;;;21.17;8.38;;;;;;;3.30;88.62;99945.69;5042955;28;20068;-88
2022/01/10 06:01:47;;;;;;;24.85;9.32;;;;;;;3.23;88.91;99947.72;5014651;28;20494;-88
2022/01/10 06:04:13;;;;;;;27.50;8.77;;;;;;;3.29;88.66;99951.78;5026744;28;20523;-88
2022/01/10 06:06:41;;;;;;;19.27;8.60;;;;;;;3.29;89.34;99952.63;5046789;28;20029;-88
2022/01/10 06:09:16;;;;;;;25.70;9.27;;;;;;;3.24;88.86;99957.19;5024339;28;20080;-87
2022/01/10 06:11:45;;;;;;;24.15;8.93;;;;;;;3.28;88.86;99968.25;5034916;28;20090;-88
2022/01/10 06:14:13;;;;;;;21.52;8.32;;;;;;;3.28;89.20;99957.91;5032378;28;20394;-88
2022/01/10 06:16:39;;;;;;;18.50;8.10;;;;;;;3.27;89.40;99974.34;5033703;28;20117;-87
2022/01/10 06:19:05;;;;;;;22.27;9.98;;;;;;;3.28;89.25;99969.09;5051015;28;20053;-87
2022/01/10 06:21:30;;;;;;;16.63;8.18;;;;;;;3.27;89.09;99979.53;5038674;28;20021;-88
2022/01/10 06:23:56;;;;;;;26.23;8.98;;;;;;;3.28;88.95;99986.38;5022573;28;20034;-89
2022/01/10 06:26:23;;;;;;;19.92;8.48;;;;;;;3.27;89.44;99990.75;5029530;28;20081;-89
2022/01/10 06:28:54;;;;;;;16.60;9.02;;;;;;;3.29;89.17;99993.25;5035651;28;20034;-87
2022/01/10 06:31:43;;;;;;;23.90;9.70;;;;;;;3.33;89.15;99999.97;5025365;28;20037;-87
2022/01/10 06:34:09;;;;;;;23.15;8.45;;;;;;;3.29;89.10;100007.03;5023214;28;20094;-87
2022/01/10 06:36:34;;;;;;;33.00;9.88;;;;;;;3.30;88.97;100002.69;5031355;28;20116;-87
2022/01/10 06:39:03;;;;;;;18.80;8.90;;;;;;;3.31;88.82;100013.03;5034333;28;20056;-87
2022/01/10 06:41:28;;;;;;;21.97;8.87;;;;;;;3.28;89.04;100018.31;5037510;28;20393;-87
2022/01/10 06:43:55;;;;;;;21.40;10.00;;;;;;;3.30;89.41;100021.72;5030844;28;20053;-88
2022/01/10 06:46:21;;;;;;;19.42;9.25;;;;;;;3.27;89.04;100029.59;5024641;28;20117;-88
2022/01/10 06:48:46;;;;;;;20.83;9.50;;;;;;;3.29;89.06;100043.31;5040583;28;20056;-88
2022/01/10 06:51:12;;;;;;;28.88;9.98;;;;;;;3.32;89.25;100047.53;5058184;28;20120;-88
2022/01/10 06:53:37;;;;;;;26.85;10.80;;;;;;;3.34;88.70;100054.34;5035387;28;20084;-88
2022/01/10 06:56:03;;;;;;;24.83;9.80;;;;;;;3.36;89.00;100057.72;5039978;28;20076;-88
2022/01/10 06:58:33;;;;;;;24.20;9.23;;;;;;;3.39;88.71;100060.19;5012304;28;20180;-87
2022/01/10 07:00:59;;;;;;;24.60;9.95;;;;;;;3.43;88.87;100070.44;5014479;28;20053;-87
2022/01/10 07:03:25;;;;;;;26.73;9.18;;;;;;;3.40;88.83;100071.38;5019593;28;20050;-87
2022/01/10 07:05:50;;;;;;;24.67;9.52;;;;;;;3.41;88.80;100080.84;5032377;28;20041;-87
2022/01/10 07:08:16;;;;;;;27.25;10.48;;;;;;;3.39;88.77;100083.50;5042256;28;20110;-88
2022/01/10 07:10:41;;;;;;;23.65;10.73;;;;;;;3.43;88.97;100096.34;5032950;28;20039;-88
2022/01/10 07:13:07;;;;;;;17.85;9.63;;;;;;;3.47;88.86;100105.69;5037977;28;20103;-87
2022/01/10 07:15:32;;;;;;;22.25;8.88;;;;;;;3.49;88.39;100109.91;5021406;28;20021;-87
2022/01/10 07:17:58;;;;;;;23.83;9.82;;;;;;;3.50;89.36;100109.00;5029648;28;20073;-87
2022/01/10 07:20:23;;;;;;;25.00;10.10;;;;;;;3.45;89.40;100110.94;5032008;28;20029;-88
2022/01/10 07:22:49;;;;;;;20.17;9.43;;;;;;;3.46;89.57;100112.63;5051538;28;20044;-87
2022/01/10 07:25:14;;;;;;;26.55;10.52;;;;;;;3.49;89.27;100119.44;5035404;28;20034;-87
2022/01/10 07:27:42;;;;;;;20.30;10.45;;;;;;;3.51;88.98;100128.81;5033951;28;20032;-86
2022/01/10 07:30:08;;;;;;;23.63;11.27;;;;;;;3.52;89.04;100133.13;5022891;28;20037;-87
2022/01/10 07:35:58;;;;;;;22.45;10.18;;;;;;;3.56;89.36;100141.59;5024155;28;20436;-86
2022/01/10 07:38:24;;;;;;;25.70;12.25;;;;;;;3.57;89.43;100148.47;5033263;28;20029;-87
2022/01/10 07:40:50;;;;;;;24.50;11.40;;;;;;;3.57;89.37;100151.06;5036790;28;20410;-88
2022/01/10 07:43:17;;;;;;;29.83;11.70;;;;;;;3.62;89.10;100165.50;5035198;28;20381;-86
2022/01/10 07:45:42;;;;;;;25.15;11.85;;;;;;;3.65;89.70;100164.56;5033999;28;20433;-85
2022/01/10 07:48:09;;;;;;;25.48;11.52;;;;;;;3.71;89.49;100172.09;5034675;28;20048;-86
2022/01/10 07:50:35;;;;;;;25.48;11.43;;;;;;;3.72;89.23;100178.97;5032776;28;20045;-87
2022/01/10 07:53:06;;;;;;;34.08;11.85;;;;;;;3.72;89.01;100178.97;5033256;28;20048;-87
2022/01/10 07:55:31;;;;;;;23.55;11.60;;;;;;;3.69;88.88;100191.22;5032810;28;20041;-88
2022/01/10 07:57:57;;;;;;;24.63;12.30;;;;;;;3.64;89.09;100186.22;5033475;28;20185;-87
2022/01/10 08:00:27;;;;;;;37.00;12.07;;;;;;;3.63;89.01;100194.88;5033623;28;20037;-88
2022/01/10 08:02:53;;;;;;;37.58;11.43;;;;;;;3.65;88.59;100203.44;5034460;28;20390;-87
2022/01/10 08:05:18;;;;;;;29.90;11.45;;;;;;;3.56;89.22;100199.47;5032839;28;20037;-88
2022/01/10 08:07:44;;;;;;;20.85;11.32;;;;;;;3.61;89.14;100207.91;5024335;28;20121;-87
2022/01/10 08:10:09;;;;;;;24.70;12.23;;;;;;;3.63;88.63;100208.72;5014862;28;20029;-87
2022/01/10 08:12:35;;;;;;;28.42;11.25;;;;;;;3.67;88.49;100225.00;5035082;28;20090;-87
2022/01/10 08:15:06;;;;;;;27.95;11.70;;;;;;;3.74;88.61;100222.97;5034426;28;20041;-87
2022/01/10 08:17:32;;;;;;;25.45;10.15;;;;;;;3.77;88.17;100223.69;5051044;28;20046;-88
2022/01/10 08:19:57;;;;;;;27.20;10.70;;;;;;;3.81;87.58;100229.59;5035976;28;20045;-87
2022/01/10 08:22:23;;;;;;;23.88;9.93;;;;;;;3.85;87.78;100225.97;5030756;28;20109;-87
2022/01/10 08:24:50;;;;;;;19.90;9.63;;;;;;;3.89;88.05;100224.94;5037562;28;20022;-89
2022/01/10 08:27:15;;;;;;;20.30;10.35;;;;;;;3.92;88.10;100227.41;5034268;28;20041;-87
2022/01/10 08:29:42;;;;;;;23.05;10.38;;;;;;;3.96;87.51;100248.91;5021048;28;20402;-87
2022/01/10 08:32:08;;;;;;;30.58;11.70;;;;;;;4.01;87.34;100247.81;5027157;28;20047;-88
2022/01/10 08:34:33;;;;;;;22.17;9.02;;;;;;;4.01;87.32;100249.56;5035663;28;20067;-88
2022/01/10 08:36:59;;;;;;;20.17;9.30;;;;;;;3.93;88.47;100254.19;5026060;28;20506;-87
2022/01/10 08:39:24;;;;;;;24.42;9.75;;;;;;;3.98;88.59;100257.47;5038125;28;20578;-88
2022/01/10 08:41:51;;;;;;;20.85;9.13;;;;;;;3.99;88.14;100257.41;5045935;28;20423;-88
2022/01/10 08:44:17;;;;;;;21.33;9.02;;;;;;;4.04;88.50;100260.69;5035740;28;20393;-87
2022/01/10 08:46:43;;;;;;;18.92;8.80;;;;;;;4.05;88.76;100270.13;5031058;28;20060;-90
2022/01/10 08:49:09;;;;;;;20.83;9.40;;;;;;;4.13;88.29;100272.41;5028460;28;20494;-87
2022/01/10 08:51:35;;;;;;;25.33;9.70;;;;;;;4.11;88.64;100280.25;5033910;28;20125;-88
2022/01/10 08:54:03;;;;;;;25.27;9.63;;;;;;;4.13;87.97;100280.19;5049467;28;20497;-88
2022/01/10 08:56:32;;;;;;;20.63;9.07;;;;;;;4.17;88.35;100283.53;5031550;28;20041;-87
2022/01/10 08:58:59;;;;;;;24.25;10.02;;;;;;;4.25;88.24;100297.03;5037171;28;20136;-87
2022/01/10 09:01:27;;;;;;;22.13;8.75;;;;;;;4.25;87.41;100303.06;5033306;28;20052;-88
2022/01/10 09:03:53;;;;;;;28.90;9.63;;;;;;;4.22;87.66;100300.56;5027574;28;20033;-87
2022/01/10 09:06:23;;;;;;;26.98;9.30;;;;;;;4.25;87.34;100308.25;5036901;28;20232;-87
2022/01/10 09:08:50;;;;;;;21.73;9.73;;;;;;;4.29;86.86;100308.97;5018294;28;20049;-89
2022/01/10 09:11:16;;;;;;;28.27;9.57;;;;;;;4.29;86.71;100309.81;5030913;28;20093;-87
2022/01/10 09:13:42;;;;;;;24.77;9.52;;;;;;;4.29;86.69;100320.19;5031919;28;20516;-86
2022/01/10 09:16:11;;;;;;;22.77;8.35;;;;;;;4.24;86.58;100327.31;5031084;28;20165;-85
2022/01/10 09:18:37;;;;;;;27.35;10.27;;;;;;;4.33;86.90;100328.69;5031054;28;20032;-87
2022/01/10 09:21:05;;;;;;;21.08;9.23;;;;;;;4.40;86.66;100331.91;5023792;28;20053;-87
2022/01/10 09:23:31;;;;;;;30.08;11.32;;;;;;;4.43;86.92;100337.81;5028486;28;20454;-86
2022/01/10 09:25:56;;;;;;;18.45;9.95;;;;;;;4.38;87.21;100339.75;5030918;28;20040;-87
2022/01/10 09:28:22;;;;;;;26.25;11.00;;;;;;;4.41;86.97;100339.59;5032416;28;20492;-86
2022/01/10 09:30:48;;;;;;;22.38;9.88;;;;;;;4.43;87.13;100348.19;5029849;28;20034;-87
2022/01/10 09:33:14;;;;;;;25.27;10.07;;;;;;;4.39;87.07;100354.41;5029404;28;20056;-87
2022/01/10 09:35:45;;;;;;;21.17;10.00;;;;;;;4.42;86.94;100362.09;5017019;28;20030;-86
2022/01/10 09:38:10;;;;;;;24.52;10.35;;;;;;;4.44;87.25;100362.84;5030339;28;20120;-87
2022/01/10 09:40:36;;;;;;;26.25;10.65;;;;;;;4.44;86.66;100360.25;5028365;28;20171;-87
2022/01/10 09:43:02;;;;;;;21.48;9.73;;;;;;;4.35;87.14;100368.44;5023001;28;20038;-86
2022/01/10 09:45:30;;;;;;;29.92;9.98;;;;;;;4.38;86.60;100378.69;5049171;28;20030;-89
2022/01/10 09:47:56;;;;;;;28.48;10.23;;;;;;;4.36;87.60;100372.69;5046035;28;20061;-86
2022/01/10 09:50:21;;;;;;;27.17;10.35;;;;;;;4.40;87.20;100382.06;5034453;28;20061;-87
2022/01/10 09:52:53;;;;;;;23.13;10.43;;;;;;;4.45;87.44;100389.66;5016645;28;20041;-86
2022/01/10 09:55:19;;;;;;;22.20;9.60;;;;;;;4.44;86.85;100390.56;5033526;28;20033;-88
2022/01/10 09:57:44;;;;;;;30.92;9.85;;;;;;;4.46;87.06;100392.22;5024602;28;20523;-88
2022/01/10 10:00:11;;;;;;;28.38;9.75;;;;;;;4.50;86.61;100398.97;5026410;28;20025;-87
2022/01/10 10:02:41;;;;;;;23.27;10.45;;;;;;;4.43;87.37;100397.53;5022983;28;20038;-86
2022/01/10 10:05:10;;;;;;;34.85;11.27;;;;;;;4.47;87.06;100401.69;5034866;28;20030;-86
2022/01/10 10:07:39;;;;;;;28.48;11.70;;;;;;;4.52;86.96;100404.09;5028646;28;20052;-87
2022/01/10 10:10:11;;;;;;;23.67;10.63;;;;;;;4.52;86.79;100410.13;5046722;28;20034;-87
2022/01/10 10:12:47;;;;;;;25.73;10.40;;;;;;;4.48;86.92;100413.75;5022792;28;20033;-86
2022/01/10 10:15:17;;;;;;;26.60;10.40;;;;;;;4.50;86.93;100419.72;5029150;28;20053;-87
2022/01/10 10:17:43;;;;;;;30.05;10.32;;;;;;;4.55;87.10;100429.94;5032746;28;20036;-87
2022/01/10 10:20:12;;;;;;;24.77;11.75;;;;;;;4.50;87.31;100427.53;5028159;28;20033;-87
2022/01/10 10:22:42;;;;;;;24.83;11.02;;;;;;;4.53;87.67;100432.59;5027026;28;20033;-87
2022/01/10 10:25:09;;;;;;;30.20;12.30;;;;;;;4.49;87.27;100440.59;5024211;28;20061;-88
2022/01/10 10:27:39;;;;;;;31.80;12.25;;;;;;;4.47;87.44;100442.38;5035515;28;20030;-87
2022/01/10 10:30:09;;;;;;;30.42;11.90;;;;;;;4.46;87.63;100451.91;5039987;28;20714;-87
2022/01/10 10:32:35;;;;;;;38.72;14.02;;;;;;;4.46;88.17;100446.72;5032525;28;20048;-86
2022/01/10 10:35:08;;;;;;;32.63;13.50;;;;;;;4.54;88.12;100451.63;5031133;28;20052;-87
2022/01/10 10:37:40;;;;;;;38.25;13.13;;;;;;;4.57;88.20;100452.34;5030967;28;20037;-86
2022/01/10 10:40:09;;;;;;;32.80;13.25;;;;;;;4.65;88.07;100461.59;5032272;28;20083;-88
2022/01/10 10:42:47;;;;;;;34.30;15.55;;;;;;;4.59;88.23;100467.84;5033198;28;20021;-87
2022/01/10 10:45:14;;;;;;;39.53;15.50;;;;;;;4.48;88.72;100462.22;5035052;28;20042;-87
2022/01/10 10:47:43;;;;;;;33.40;15.02;;;;;;;4.53;88.73;100458.56;5050276;28;20111;-87
2022/01/10 10:50:10;;;;;;;38.63;15.63;;;;;;;4.57;88.82;100462.72;5028130;28;20033;-87
2022/01/10 10:52:41;;;;;;;39.78;14.65;;;;;;;4.55;88.55;100472.31;5028181;28;20522;-87
2022/01/10 10:55:13;;;;;;;40.35;15.10;;;;;;;4.50;88.27;100489.00;5036348;28;20045;-88
2022/01/10 10:57:50;;;;;;;34.95;15.50;;;;;;;4.44;88.75;100489.22;5049437;28;20025;-88
2022/01/10 11:00:16;;;;;;;35.53;15.65;;;;;;;4.42;88.83;100484.09;5027642;28;20076;-88
2022/01/10 11:02:45;;;;;;;46.63;15.52;;;;;;;4.40;88.48;100485.06;5053939;28;20033;-88
2022/01/10 11:05:12;;;;;;;;;;;;;;;4.47;88.44;100496.91;5039410;28;20144;-88
2022/01/10 11:07:41;;;;;;;34.30;15.20;;;;;;;4.43;88.61;100488.38;5029574;28;20055;-86
2022/01/10 11:10:09;;;;;;;33.33;15.23;;;;;;;4.42;88.39;100497.09;5022634;28;20033;-86
2022/01/10 11:12:41;;;;;;;45.30;16.63;;;;;;;4.40;88.22;100504.06;5035110;28;20450;-89
2022/01/10 11:15:08;;;;;;;44.95;17.30;;;;;;;4.45;88.41;100499.56;5030408;28;20060;-87
2022/01/10 11:20:25;;;;;;;40.60;16.45;;;;;;;4.33;88.50;100503.44;5016463;28;20045;-86
2022/01/10 11:22:54;;;;;;;37.90;15.43;;;;;;;4.37;88.15;100509.38;5034135;28;20036;-86
2022/01/10 11:25:29;;;;;;;37.78;15.70;;;;;;;4.39;88.21;100520.56;5027353;28;20270;-87
2022/01/10 11:28:05;;;;;;;37.13;16.02;;;;;;;4.44;87.85;100516.03;5024865;28;20223;-87
2022/01/10 11:30:33;;;;;;;37.63;15.40;;;;;;;4.46;87.94;100516.84;5044454;28;20018;-86
2022/01/10 11:33:07;;;;;;;37.80;15.15;;;;;;;4.48;88.03;100525.38;5030521;28;20860;-88
2022/01/10 11:35:41;;;;;;;32.08;15.02;;;;;;;4.54;87.94;100529.53;5030552;28;20036;-87
2022/01/10 11:38:22;;;;;;;34.67;13.98;;;;;;;4.58;87.68;100529.34;5033548;28;20033;-85
2022/01/10 11:40:50;;;;;;;29.33;14.50;;;;;;;4.56;87.16;100536.34;5029395;28;20052;-84
2022/01/10 11:43:38;;;;;;;33.13;13.48;;;;;;;4.67;86.72;100530.72;5022790;28;20056;-87
2022/01/10 11:46:10;;;;;;;28.35;13.57;;;;;;;4.75;86.93;100538.25;5030822;28;20033;-86
2022/01/10 11:48:51;;;;;;;30.85;13.32;;;;;;;4.79;86.63;100542.41;5031236;28;20064;-87
2022/01/10 11:51:19;;;;;;;32.08;13.80;;;;;;;4.71;86.48;100537.53;5027764;28;20041;-86